Eugenopolis, Brazil
Current Conditions -  °F | °C
As of 11:00 PM on Friday 31 Oct 2014 (Local Time) from SBCP Reporting Station
Clear Clear  
Wind Chill: 75°   Ceiling: Unl
Heat Index: 75°   Visibility: 6mi
Dew Point: 70°   Wind: 23mph
Humidity: 83%   Direction: 60°ENE
Pressure: 30"   Gusts: NA
Location:  21.1°S, 42.19°W
Report Text: SBCP 010100Z 06020KT CAVOK 24/21 Q1016
Loading
Personal Weather Stations






























Interactive Weather Map
Tropical Storm Tracking
New forecast layout! Learn more

10-Day Weather Forecast

Advertisements
Track Severe Weather on mobile